Autryville, NC

6:40 AM EST on January 30, 2015 (GMT -0500)
Lakewood High School | Change Station
CLOSE
Current Station
Personal Weather Station
Location: Salemburg, NC
Elevation: 180 ft
Nearby Weather Stations

Elev 180 ft 34.99 °N, 78.50 °W | Updated 1 minute ago

Overcast
Overcast
47.2 °F
Feels Like 47 °F
N
0.0
Wind Variable Wind from WNW
Gusts 0.0 mph

Today
High -- | Low -- °F
--% Chance of Precip.
Yesterday
High -- | Low -- °F
Precip. -- in
7:14 AM 5:40 PM
Waxing Gibbous, 82% visible
Pressure 29.98 in
Visibility 10.0 miles
Clouds Overcast 12000 ft
Windchill 47 °F
Dew Point 39 °F
Humidity 72%
Rainfall 0.00 in
Snow Depth Not available.
UV 0 out of 12
Pollen 1.70 out of 12
Air Quality Not available.
Flu Activity Not available.
METAR KCTZ 301115Z AUTO 28006KT 10SM OVC120 09/05 A2998 RMK AO2 T00850046

More Conditions Fewer Conditions

Pressure 29.98 in
Visibility 10.0 miles
Clouds Overcast 12000 ft
Windchill 47 °F
Dew Point 39 °F
Humidity 72%
Rainfall 0.00 in
Snow Depth Not available.
UV 0 out of 12
Pollen 1.70 out of 12
Air Quality Not available.
Flu Activity Not available.
METAR KCTZ 301115Z AUTO 28006KT 10SM OVC120 09/05 A2998 RMK AO2 T00850046

More Conditions Fewer Conditions

10-Day Weather Forecast

Almanac

Astronomy

Jan. 30, 2015 Rise Set
Actual Time
Civil Twilight
Nautical Twilight
Astronomical Twilight
Moon
Length of Visible Light
Length of Day
Tomorrow will be .
, % of the Moon is Illuminated

Today's Extremes

State Highs State Lows

Community

WunderPhotos

Upload Photos

1,791,737 photos uploaded!

WunderBlogs® & News

Nearby

Air Quality

  Air Quality AQ Index Pollutant
Not available.

Snow Depth

Station Depth Elevation

Earthquake Activity

City Distance Mag. Time & Date
Minimum magnitude displayed is 2.5.

Coastal Water Temperatures

Place Temperature

Nearby Weather Stations